Time;durP1;ratioP1;P1;durP2;ratioP2;P2;SDS_P1;SDS_P2;PMS_P1;PMS_P2;Temp;Humidity;BMP_temperature;BMP_pressure;BME280_temperature;BME280_humidity;BME280_pressure;Samples;Min_cycle;Max_cycle;Signal;HPM_P1;HPM_P2
2022/10/07 00:01:29;;;;;;;9.30;4.30;;;8.80;99.90;;;;;;6183263;23;20027;-71
2022/10/07 00:03:54;;;;;;;11.80;4.63;;;8.80;99.90;;;;;;6181218;23;20488;-72
2022/10/07 00:06:21;;;;;;;15.30;5.70;;;8.70;99.90;;;;;;6182389;23;20088;-72
2022/10/07 00:08:50;;;;;;;10.17;4.57;;;8.80;99.90;;;;;;6182868;23;20005;-72
2022/10/07 00:11:22;;;;;;;11.63;4.37;;;8.80;99.90;;;;;;6183135;23;20308;-71
2022/10/07 00:13:51;;;;;;;10.57;4.70;;;8.80;99.90;;;;;;6182943;23;20034;-72
2022/10/07 00:16:21;;;;;;;12.60;4.40;;;8.80;99.90;;;;;;6183091;23;20035;-72
2022/10/07 00:18:50;;;;;;;11.23;4.90;;;8.80;99.90;;;;;;6182602;23;19997;-72
2022/10/07 00:21:17;;;;;;;9.60;4.80;;;8.80;99.90;;;;;;6182428;23;20008;-71
2022/10/07 00:23:44;;;;;;;18.53;5.00;;;8.80;99.90;;;;;;6182699;23;20033;-71
2022/10/07 00:26:12;;;;;;;11.37;4.30;;;8.80;99.90;;;;;;6183178;23;20001;-72
2022/10/07 00:28:38;;;;;;;9.77;4.20;;;8.80;99.90;;;;;;6182741;23;20001;-72
2022/10/07 00:31:06;;;;;;;13.10;5.70;;;8.80;99.90;;;;;;6183237;23;20055;-71
2022/10/07 00:33:33;;;;;;;10.43;5.13;;;8.70;99.90;;;;;;6182594;23;20005;-71
2022/10/07 00:35:59;;;;;;;15.80;5.10;;;8.70;99.90;;;;;;6182146;23;20017;-72
2022/10/07 00:38:24;;;;;;;11.37;5.17;;;8.70;99.90;;;;;;6182728;23;20534;-72
2022/10/07 00:40:50;;;;;;;14.63;5.33;;;8.60;99.90;;;;;;6182782;23;19997;-72
2022/10/07 00:43:30;;;;;;;9.13;5.37;;;8.60;99.90;;;;;;6182863;23;20012;-71
2022/10/07 00:46:00;;;;;;;11.90;5.73;;;8.70;99.90;;;;;;6182935;23;20060;-72
2022/10/07 00:48:30;;;;;;;10.20;4.50;;;8.60;99.90;;;;;;6182674;23;20438;-71
2022/10/07 00:50:59;;;;;;;13.57;4.93;;;8.50;99.90;;;;;;6182605;23;20005;-71
2022/10/07 00:53:27;;;;;;;12.93;5.00;;;8.60;99.90;;;;;;6182701;23;20012;-71
2022/10/07 00:55:56;;;;;;;22.77;5.57;;;8.60;99.90;;;;;;6182696;23;20009;-71
2022/10/07 00:58:23;;;;;;;13.23;4.43;;;8.60;99.90;;;;;;6182670;23;20108;-72
2022/10/07 01:00:49;;;;;;;16.73;4.37;;;8.60;99.90;;;;;;6182746;23;20005;-72
2022/10/07 01:03:15;;;;;;;7.60;4.90;;;8.50;99.90;;;;;;6182632;23;20343;-71
2022/10/07 01:05:40;;;;;;;13.23;5.97;;;8.60;99.90;;;;;;6181775;23;20001;-72
2022/10/07 01:08:06;;;;;;;17.80;5.53;;;8.60;99.90;;;;;;6182840;23;20012;-72
2022/10/07 01:10:48;;;;;;;11.23;4.60;;;8.50;99.90;;;;;;6182395;23;20029;-72
2022/10/07 01:13:26;;;;;;;8.40;4.43;;;8.60;99.90;;;;;;6182708;23;20009;-71
2022/10/07 01:16:17;;;;;;;18.87;5.40;;;8.50;99.90;;;;;;6182417;23;20064;-72
2022/10/07 01:19:03;;;;;;;15.97;5.40;;;8.60;99.90;;;;;;6181592;23;20071;-71
2022/10/07 01:21:53;;;;;;;15.33;4.97;;;8.40;99.90;;;;;;6182357;23;20004;-71
2022/10/07 01:24:42;;;;;;;13.90;5.20;;;8.50;99.90;;;;;;6182238;23;20033;-71
2022/10/07 01:27:17;;;;;;;11.50;5.13;;;8.50;99.90;;;;;;6182616;23;20028;-72
2022/10/07 01:30:02;;;;;;;18.10;6.73;;;8.40;99.90;;;;;;6182314;23;20005;-71
2022/10/07 01:32:37;;;;;;;14.93;5.17;;;8.40;99.90;;;;;;6181524;23;20001;-71
2022/10/07 01:35:08;;;;;;;13.00;5.10;;;8.40;99.90;;;;;;6182461;23;20347;-72
2022/10/07 01:37:39;;;;;;;11.43;5.47;;;8.40;99.90;;;;;;6182221;23;20046;-72
2022/10/07 01:40:11;;;;;;;13.50;5.03;;;8.40;99.90;;;;;;6182546;23;20431;-72
2022/10/07 01:42:38;;;;;;;14.13;6.07;;;8.30;99.90;;;;;;6182096;23;19992;-71
2022/10/07 01:45:06;;;;;;;10.37;4.50;;;8.30;99.90;;;;;;6181485;23;20316;-72
2022/10/07 01:47:32;;;;;;;13.80;4.40;;;8.30;99.90;;;;;;6181516;23;20001;-71
2022/10/07 01:49:57;;;;;;;9.63;4.90;;;8.20;99.90;;;;;;6181963;23;20005;-72
2022/10/07 01:53:02;;;;;;;13.93;5.60;;;8.20;99.90;;;;;;6182281;23;20526;-71
2022/10/07 01:55:37;;;;;;;13.20;5.03;;;8.20;99.90;;;;;;6181974;23;20006;-71
2022/10/07 01:58:40;;;;;;;12.57;4.47;;;8.10;99.90;;;;;;6182192;23;20076;-72
2022/10/07 02:01:18;;;;;;;15.23;5.43;;;8.20;99.90;;;;;;6182412;23;19997;-71
2022/10/07 02:03:56;;;;;;;18.57;5.43;;;8.10;99.90;;;;;;6181532;23;20005;-71
2022/10/07 02:06:36;;;;;;;14.20;5.00;;;8.10;99.90;;;;;;6182118;23;20008;-72
2022/10/07 02:09:10;;;;;;;11.50;4.77;;;8.00;99.90;;;;;;6182020;23;20055;-71
2022/10/07 02:11:41;;;;;;;11.35;4.60;;;8.00;99.90;;;;;;6182233;23;20005;-72
2022/10/07 02:14:13;;;;;;;10.03;4.70;;;8.00;99.90;;;;;;6181870;23;20483;-71
2022/10/07 02:16:47;;;;;;;16.20;5.67;;;8.00;99.90;;;;;;6181286;23;20028;-71
2022/10/07 02:19:31;;;;;;;14.20;4.93;;;8.10;99.90;;;;;;6182200;23;20048;-71
2022/10/07 02:22:00;;;;;;;11.73;4.57;;;8.10;99.90;;;;;;6182081;23;20012;-72
2022/10/07 02:24:29;;;;;;;8.40;4.27;;;8.10;99.90;;;;;;6182235;23;20001;-71
2022/10/07 02:26:59;;;;;;;12.23;4.67;;;8.00;99.90;;;;;;6181258;23;20429;-71
2022/10/07 02:29:29;;;;;;;11.03;4.50;;;8.00;99.90;;;;;;6181873;23;20005;-71
2022/10/07 02:31:57;;;;;;;18.50;5.10;;;8.10;99.90;;;;;;6181645;23;20128;-71
2022/10/07 02:34:25;;;;;;;13.50;5.70;;;8.00;99.90;;;;;;6181601;23;20023;-71
2022/10/07 02:36:56;;;;;;;15.47;5.63;;;8.00;99.90;;;;;;6181684;23;20009;-71
2022/10/07 02:39:22;;;;;;;12.40;5.23;;;8.00;99.90;;;;;;6182030;23;20209;-71
2022/10/07 02:42:03;;;;;;;12.47;4.80;;;8.00;99.90;;;;;;6181672;23;20423;-72
2022/10/07 02:44:49;;;;;;;9.00;4.73;;;7.90;99.90;;;;;;6181771;23;20004;-71
2022/10/07 02:47:32;;;;;;;10.63;4.97;;;7.90;99.90;;;;;;6182241;23;20001;-71
2022/10/07 02:50:03;;;;;;;18.03;5.90;;;7.90;99.90;;;;;;6182051;23;20009;-72
2022/10/07 02:52:30;;;;;;;13.83;5.10;;;7.90;99.90;;;;;;6181827;23;20005;-71
2022/10/07 02:55:08;;;;;;;12.40;4.83;;;7.80;99.90;;;;;;6180993;23;20005;-72
2022/10/07 02:57:38;;;;;;;12.53;5.50;;;7.70;99.90;;;;;;6179523;23;20013;-71
2022/10/07 03:00:06;;;;;;;16.53;5.60;;;7.70;99.90;;;;;;6179702;23;20009;-71
2022/10/07 03:02:39;;;;;;;14.63;6.00;;;7.80;99.90;;;;;;6179566;23;20008;-72
2022/10/07 03:05:08;;;;;;;16.58;5.35;;;7.80;99.90;;;;;;6180070;23;20406;-71
2022/10/07 03:07:34;;;;;;;13.00;4.83;;;7.80;99.90;;;;;;6179638;23;20371;-71
2022/10/07 03:10:00;;;;;;;14.00;5.27;;;7.70;99.90;;;;;;6179897;23;20077;-72
2022/10/07 03:12:26;;;;;;;12.13;4.80;;;7.70;99.90;;;;;;6180462;23;20024;-72
2022/10/07 03:14:52;;;;;;;18.77;5.70;;;7.60;99.90;;;;;;6181079;23;20001;-71
2022/10/07 03:17:18;;;;;;;12.97;5.63;;;7.70;99.90;;;;;;6181909;23;20032;-71
2022/10/07 03:19:43;;;;;;;13.97;4.93;;;7.70;99.90;;;;;;6181355;23;20475;-71
2022/10/07 03:22:09;;;;;;;12.23;5.33;;;7.80;99.90;;;;;;6181813;23;20028;-71
2022/10/07 03:24:34;;;;;;;13.47;4.40;;;7.60;99.90;;;;;;6181661;23;20481;-71
2022/10/07 03:27:00;;;;;;;18.83;5.77;;;7.80;99.90;;;;;;6183115;23;20427;-71
2022/10/07 03:29:25;;;;;;;19.47;5.40;;;7.70;99.90;;;;;;6183131;23;20013;-71
2022/10/07 03:31:54;;;;;;;16.90;5.67;;;7.70;99.90;;;;;;6183545;23;20451;-72
2022/10/07 03:34:20;;;;;;;15.47;5.20;;;7.80;99.90;;;;;;6183524;23;20013;-71
2022/10/07 03:36:46;;;;;;;12.30;4.63;;;7.90;99.90;;;;;;6183010;23;20001;-72
2022/10/07 03:39:12;;;;;;;18.00;5.27;;;7.80;99.90;;;;;;6183851;23;20055;-71
2022/10/07 03:41:38;;;;;;;16.07;4.80;;;7.80;99.90;;;;;;6182884;23;20001;-71
2022/10/07 03:44:04;;;;;;;15.97;5.20;;;7.80;99.90;;;;;;6183166;23;20009;-72
2022/10/07 03:46:29;;;;;;;11.37;5.03;;;7.80;99.90;;;;;;6183360;23;20011;-71
2022/10/07 03:48:55;;;;;;;12.13;5.60;;;7.80;99.90;;;;;;6183640;23;20430;-71
2022/10/07 03:51:21;;;;;;;12.33;5.00;;;7.80;99.90;;;;;;6183971;23;19997;-72
2022/10/07 03:53:47;;;;;;;23.50;5.67;;;7.90;99.90;;;;;;6181564;23;20001;-71
2022/10/07 03:56:13;;;;;;;14.20;5.40;;;7.80;99.90;;;;;;6182935;23;20008;-70
2022/10/07 03:58:38;;;;;;;13.17;5.57;;;7.80;99.90;;;;;;6182163;23;20014;-71
2022/10/07 04:01:09;;;;;;;18.27;5.43;;;8.40;99.90;;;;;;6183236;23;20016;-71
2022/10/07 04:03:34;;;;;;;10.30;5.40;;;7.80;99.90;;;;;;6182670;23;20032;-71
2022/10/07 04:06:02;;;;;;;15.40;5.60;;;7.80;99.90;;;;;;6182569;23;20012;-71
2022/10/07 04:08:28;;;;;;;18.77;5.67;;;7.80;99.90;;;;;;6181022;23;20005;-71
2022/10/07 04:10:54;;;;;;;14.83;5.97;;;7.80;99.90;;;;;;6183143;23;20012;-71
2022/10/07 04:13:20;;;;;;;13.27;4.93;;;7.70;99.90;;;;;;6183132;23;20327;-71
2022/10/07 04:15:45;;;;;;;16.10;5.10;;;7.70;99.90;;;;;;6182776;23;20012;-71
2022/10/07 04:18:11;;;;;;;14.23;5.37;;;7.70;99.90;;;;;;6183223;23;20004;-71
2022/10/07 04:20:37;;;;;;;15.73;5.70;;;7.70;99.90;;;;;;6182931;23;20511;-71
2022/10/07 04:23:03;;;;;;;15.47;4.90;;;7.70;99.90;;;;;;6183308;23;20093;-71
2022/10/07 04:25:34;;;;;;;16.87;5.37;;;7.60;99.90;;;;;;6182812;23;20036;-71
2022/10/07 04:28:14;;;;;;;15.47;6.20;;;7.60;99.90;;;;;;6182389;23;20431;-71
2022/10/07 04:30:42;;;;;;;18.77;5.03;;;7.60;99.90;;;;;;6183040;23;20001;-71
2022/10/07 04:33:08;;;;;;;15.93;5.10;;;7.60;99.90;;;;;;6182847;23;20016;-71
2022/10/07 04:35:38;;;;;;;13.53;6.23;;;7.70;99.90;;;;;;6182758;23;20020;-71
2022/10/07 04:38:10;;;;;;;17.13;5.93;;;7.60;99.90;;;;;;6182708;23;20075;-71
2022/10/07 04:40:45;;;;;;;16.87;5.30;;;7.60;99.90;;;;;;6182764;23;20012;-71
2022/10/07 04:43:19;;;;;;;15.13;5.23;;;7.60;99.90;;;;;;6182603;23;20012;-71
2022/10/07 04:45:52;;;;;;;15.80;5.28;;;7.70;99.90;;;;;;6182894;23;20077;-71
2022/10/07 04:48:21;;;;;;;18.92;6.00;;;7.70;99.90;;;;;;6183037;23;20001;-71
2022/10/07 04:50:47;;;;;;;12.67;4.93;;;7.70;99.90;;;;;;6182643;23;20001;-71
2022/10/07 04:53:15;;;;;;;19.13;6.17;;;6.30;99.90;;;;;;6182899;23;20001;-71
2022/10/07 04:55:43;;;;;;;17.43;5.60;;;7.70;99.90;;;;;;6181830;23;20012;-71
2022/10/07 04:58:09;;;;;;;16.00;6.00;;;7.70;99.90;;;;;;6182844;23;20059;-71
2022/10/07 05:00:40;;;;;;;16.50;6.60;;;7.70;99.90;;;;;;6181954;23;19997;-71
2022/10/07 05:03:06;;;;;;;17.17;6.90;;;7.70;99.90;;;;;;6182495;23;20009;-71
2022/10/07 05:05:33;;;;;;;19.27;6.83;;;7.80;99.90;;;;;;6182213;23;20006;-74
2022/10/07 05:07:58;;;;;;;21.30;6.43;;;7.80;99.90;;;;;;6182882;23;20015;-74
2022/10/07 05:10:24;;;;;;;15.67;6.13;;;7.80;99.90;;;;;;6181556;23;20088;-74
2022/10/07 05:12:49;;;;;;;14.80;4.90;;;7.90;99.90;;;;;;6182202;23;20080;-74
2022/10/07 05:15:16;;;;;;;13.93;5.87;;;;;;;;;;6182306;23;20047;-73
2022/10/07 05:17:41;;;;;;;21.07;5.43;;;7.90;99.90;;;;;;6182004;23;20001;-74
2022/10/07 05:20:08;;;;;;;19.07;5.93;;;7.90;99.90;;;;;;6182509;23;20001;-74
2022/10/07 05:22:34;;;;;;;14.23;5.20;;;8.00;99.90;;;;;;6182034;23;20012;-74
2022/10/07 05:25:00;;;;;;;17.20;5.70;;;7.90;99.90;;;;;;6181768;23;20323;-74
2022/10/07 05:27:25;;;;;;;21.60;5.70;;;7.90;99.90;;;;;;6182138;23;20012;-74
2022/10/07 05:29:51;;;;;;;15.00;5.80;;;7.80;99.90;;;;;;6180190;23;20016;-74
2022/10/07 05:32:17;;;;;;;14.37;5.17;;;7.90;99.90;;;;;;6182035;23;20015;-74
2022/10/07 05:34:44;;;;;;;21.50;6.93;;;8.00;99.90;;;;;;6181254;23;20152;-74
2022/10/07 05:37:10;;;;;;;12.77;4.73;;;7.90;99.90;;;;;;6181629;23;20005;-74
2022/10/07 05:39:36;;;;;;;14.63;5.23;;;8.00;99.90;;;;;;6181250;23;20060;-74
2022/10/07 05:42:03;;;;;;;17.47;5.70;;;9.30;99.90;;;;;;6182101;23;20001;-73
2022/10/07 05:44:30;;;;;;;20.33;4.73;;;7.90;99.90;;;;;;6181694;23;20422;-74
2022/10/07 05:46:56;;;;;;;12.83;4.47;;;8.10;99.90;;;;;;6181660;23;20524;-74
2022/10/07 05:49:22;;;;;;;20.40;4.53;;;8.00;99.90;;;;;;6181512;23;20001;-73
2022/10/07 05:51:47;;;;;;;14.30;5.80;;;8.00;99.90;;;;;;6181476;23;20016;-74
2022/10/07 05:54:14;;;;;;;17.83;4.57;;;8.10;99.90;;;;;;6181366;23;20039;-74
2022/10/07 05:56:39;;;;;;;18.47;5.80;;;8.00;99.90;;;;;;6181528;23;20136;-75
2022/10/07 05:59:05;;;;;;;10.27;5.37;;;8.10;99.90;;;;;;6182390;23;20037;-74
2022/10/07 06:01:30;;;;;;;10.63;4.73;;;8.20;99.90;;;;;;6181808;23;19997;-73
2022/10/07 06:03:57;;;;;;;16.93;4.27;;;8.20;99.90;;;;;;6181396;23;20116;-73
2022/10/07 06:06:24;;;;;;;16.27;5.07;;;8.00;99.90;;;;;;6181774;23;20031;-74
2022/10/07 06:08:51;;;;;;;25.20;5.13;;;8.10;99.90;;;;;;6181213;23;20028;-73
2022/10/07 06:14:03;;;;;;;15.83;4.60;;;8.20;99.90;;;;;;6181894;23;20012;-74
2022/10/07 06:16:28;;;;;;;17.10;5.17;;;8.20;99.90;;;;;;6181668;23;20005;-72
2022/10/07 06:18:55;;;;;;;13.37;5.43;;;8.20;99.90;;;;;;6181710;23;20011;-71
2022/10/07 06:21:26;;;;;;;12.20;5.90;;;8.30;99.90;;;;;;6182407;23;20005;-72
2022/10/07 06:23:53;;;;;;;15.90;5.60;;;8.30;99.90;;;;;;6181510;23;20158;-71
2022/10/07 06:26:20;;;;;;;22.00;7.37;;;8.20;99.90;;;;;;6182186;23;20079;-71
2022/10/07 06:28:46;;;;;;;11.33;4.60;;;8.30;99.90;;;;;;6181820;23;20011;-71
2022/10/07 06:31:14;;;;;;;9.27;4.60;;;8.30;99.90;;;;;;6182368;23;20009;-71
2022/10/07 06:33:40;;;;;;;14.13;4.53;;;8.40;99.90;;;;;;6181519;23;20056;-72
2022/10/07 06:36:11;;;;;;;15.47;4.93;;;8.40;99.90;;;;;;6181915;23;20009;-73
2022/10/07 06:38:42;;;;;;;13.97;4.40;;;8.60;99.90;;;;;;6179544;23;20005;-73
2022/10/07 06:41:08;;;;;;;18.13;5.07;;;8.70;99.90;;;;;;6181958;23;20005;-73
2022/10/07 06:43:34;;;;;;;15.67;5.17;;;8.60;99.90;;;;;;6182001;23;20017;-73
2022/10/07 06:46:01;;;;;;;15.10;4.53;;;8.70;99.90;;;;;;6181977;23;20161;-73
2022/10/07 06:48:29;;;;;;;15.10;5.53;;;8.80;99.90;;;;;;6181752;23;20394;-73
2022/10/07 06:50:57;;;;;;;16.67;5.93;;;8.90;99.90;;;;;;6181666;23;20009;-73
2022/10/07 06:53:24;;;;;;;11.13;4.90;;;8.90;99.90;;;;;;6181317;23;20028;-73
2022/10/07 06:55:50;;;;;;;15.87;4.43;;;8.90;99.90;;;;;;6181737;23;20008;-73
2022/10/07 06:58:17;;;;;;;12.87;4.63;;;8.90;99.90;;;;;;6182002;23;20381;-73
2022/10/07 07:00:46;;;;;;;17.00;4.70;;;9.00;99.90;;;;;;6182254;23;20104;-74
2022/10/07 07:03:12;;;;;;;11.13;4.00;;;9.00;99.90;;;;;;6184067;23;20034;-74
2022/10/07 07:05:39;;;;;;;11.63;4.10;;;9.10;99.90;;;;;;6183351;23;20000;-74
2022/10/07 07:08:04;;;;;;;15.53;4.93;;;9.20;99.90;;;;;;6183444;23;20004;-73
2022/10/07 07:10:30;;;;;;;17.70;5.70;;;9.30;99.90;;;;;;6183707;23;20012;-73
2022/10/07 07:12:56;;;;;;;18.00;6.63;;;9.50;99.90;;;;;;6183658;23;20834;-73
2022/10/07 07:15:22;;;;;;;14.30;5.67;;;9.60;99.90;;;;;;6184031;23;20327;-73
2022/10/07 07:17:48;;;;;;;20.70;6.53;;;9.70;99.90;;;;;;6183602;23;20084;-73
2022/10/07 07:20:14;;;;;;;16.73;5.47;;;9.70;99.90;;;;;;6183885;23;20001;-73
2022/10/07 07:22:40;;;;;;;20.17;5.70;;;9.70;99.90;;;;;;6182916;23;19997;-73
2022/10/07 07:25:08;;;;;;;10.90;5.43;;;9.80;99.90;;;;;;6183849;23;20001;-74
2022/10/07 07:27:35;;;;;;;18.20;4.77;;;9.90;99.90;;;;;;6183628;23;20012;-73
2022/10/07 07:30:01;;;;;;;25.43;6.27;;;10.00;99.90;;;;;;6183417;23;20083;-73
2022/10/07 07:32:28;;;;;;;15.40;6.00;;;10.00;99.90;;;;;;6183605;23;20012;-73
2022/10/07 07:34:54;;;;;;;14.67;5.47;;;10.10;99.90;;;;;;6182638;23;20067;-73
2022/10/07 07:37:20;;;;;;;13.23;5.63;;;10.10;99.90;;;;;;6183630;23;20005;-72
2022/10/07 07:39:46;;;;;;;20.67;6.37;;;10.30;99.90;;;;;;6182425;23;20005;-72
2022/10/07 07:42:11;;;;;;;21.10;7.17;;;10.20;99.90;;;;;;6182950;23;20007;-73
2022/10/07 07:44:37;;;;;;;16.17;6.73;;;10.30;99.90;;;;;;6182634;23;20002;-73
2022/10/07 07:47:03;;;;;;;24.27;8.07;;;10.40;99.90;;;;;;6183312;23;20038;-72
2022/10/07 07:49:31;;;;;;;18.43;6.43;;;10.40;99.90;;;;;;6182212;23;20009;-72
2022/10/07 07:51:57;;;;;;;19.03;7.47;;;10.20;99.90;;;;;;6183020;23;20008;-72
2022/10/07 07:54:26;;;;;;;18.93;6.43;;;10.20;99.90;;;;;;6183120;23;20028;-72
2022/10/07 07:56:54;;;;;;;20.07;6.50;;;10.30;99.90;;;;;;6182471;23;20001;-72
2022/10/07 07:59:19;;;;;;;20.63;6.60;;;10.20;99.90;;;;;;6182874;23;20097;-72
2022/10/07 08:01:45;;;;;;;18.03;5.53;;;10.30;99.90;;;;;;6182534;23;20029;-72
2022/10/07 08:04:12;;;;;;;14.85;5.22;;;10.50;99.90;;;;;;6182421;23;20005;-72
2022/10/07 08:06:39;;;;;;;20.10;5.73;;;10.50;99.90;;;;;;6182069;23;20037;-71
2022/10/07 08:09:05;;;;;;;16.53;5.90;;;10.50;99.90;;;;;;6181020;23;20005;-71
2022/10/07 08:11:31;;;;;;;17.13;5.57;;;10.80;99.90;;;;;;6181748;23;20012;-71
2022/10/07 08:13:58;;;;;;;13.93;5.00;;;10.70;99.90;;;;;;6181706;23;20015;-71
2022/10/07 08:16:26;;;;;;;12.77;4.40;;;10.80;99.90;;;;;;6182549;23;20150;-73
2022/10/07 08:18:54;;;;;;;11.80;4.40;;;10.90;99.90;;;;;;6181949;23;20009;-71
2022/10/07 08:21:21;;;;;;;16.13;4.70;;;10.90;99.90;;;;;;6182607;23;20005;-71
2022/10/07 08:23:51;;;;;;;10.57;4.17;;;11.00;99.90;;;;;;6181938;23;20080;-71
2022/10/07 08:26:17;;;;;;;14.63;4.97;;;11.00;99.90;;;;;;6182111;23;20016;-71
2022/10/07 08:28:42;;;;;;;19.30;4.53;;;11.20;99.90;;;;;;6181941;23;20009;-70
2022/10/07 08:31:13;;;;;;;12.38;3.53;;;11.50;99.90;;;;;;6182418;23;20374;-71
2022/10/07 08:33:41;;;;;;;10.50;3.20;;;11.50;99.90;;;;;;6181525;23;20013;-69
2022/10/07 08:36:10;;;;;;;16.90;4.87;;;11.60;99.90;;;;;;6182184;23;20080;-70
2022/10/07 08:38:38;;;;;;;12.25;4.57;;;11.70;99.90;;;;;;6182864;23;20005;-72
2022/10/07 08:41:22;;;;;;;15.88;5.03;;;11.70;99.90;;;;;;6183128;23;20051;-72
2022/10/07 08:43:49;;;;;;;20.38;5.55;;;11.80;99.90;;;;;;6182807;23;19997;-72
2022/10/07 08:46:28;;;;;;;13.70;4.50;;;11.90;99.90;;;;;;6183361;23;20005;-71
2022/10/07 08:49:08;;;;;;;10.65;5.07;;;11.90;99.90;;;;;;6182596;23;20429;-72
2022/10/07 08:51:47;;;;;;;20.15;4.05;;;12.20;99.90;;;;;;6183369;23;20324;-72
2022/10/07 08:54:15;;;;;;;19.50;3.33;;;12.40;99.90;;;;;;6182649;23;20308;-72
2022/10/07 08:56:42;;;;;;;17.48;4.22;;;12.60;99.90;;;;;;6182191;23;20088;-74
2022/10/07 08:59:22;;;;;;;15.57;4.28;;;12.80;99.90;;;;;;6182750;23;20055;-72
2022/10/07 09:02:12;;;;;;;12.45;4.25;;;12.90;99.90;;;;;;6182570;23;20015;-72
2022/10/07 09:05:10;;;;;;;12.13;3.40;;;12.80;99.90;;;;;;6182859;23;20367;-71
2022/10/07 09:07:46;;;;;;;14.75;2.83;;;13.30;99.90;;;;;;6117023;23;20060;-71
2022/10/07 09:10:40;;;;;;;11.65;3.03;;;13.60;99.90;;;;;;6182994;23;19997;-72
2022/10/07 09:13:14;;;;;;;10.70;2.88;;;13.80;99.90;;;;;;6182869;23;20450;-70
2022/10/07 09:16:23;;;;;;;9.43;2.50;;;13.90;99.90;;;;;;6182467;23;20005;-71
2022/10/07 09:18:52;;;;;;;11.60;2.97;;;14.10;99.90;;;;;;6182227;23;20308;-70
2022/10/07 09:21:30;;;;;;;11.82;2.80;;;14.40;99.90;;;;;;6182535;23;20064;-70
2022/10/07 09:24:01;;;;;;;15.95;3.95;;;14.50;99.90;;;;;;6180528;23;20330;-70
2022/10/07 09:26:26;;;;;;;8.73;3.15;;;14.70;99.90;;;;;;6182098;23;20015;-70
2022/10/07 09:28:52;;;;;;;17.05;3.17;;;14.70;99.90;;;;;;6182046;23;20036;-70
2022/10/07 09:31:20;;;;;;;12.05;2.63;;;14.70;99.90;;;;;;6181759;23;20001;-70
2022/10/07 09:33:48;;;;;;;10.10;2.65;;;14.80;99.90;;;;;;6181664;23;20017;-71
2022/10/07 09:36:17;;;;;;;10.70;2.72;;;14.80;99.90;;;;;;6182269;23;20011;-71
2022/10/07 09:38:48;;;;;;;9.15;2.30;;;15.90;99.90;;;;;;6181761;23;19997;-71
2022/10/07 09:41:16;;;;;;;11.90;2.97;;;14.80;99.90;;;;;;6182492;23;19997;-71
2022/10/07 09:44:14;;;;;;;13.48;3.33;;;14.90;99.90;;;;;;6182060;23;20008;-71
2022/10/07 09:46:49;;;;;;;8.18;2.35;;;14.90;99.90;;;;;;6172870;23;20443;-71
2022/10/07 09:49:27;;;;;;;11.75;2.60;;;15.00;99.90;;;;;;6182010;23;20071;-71
2022/10/07 09:52:01;;;;;;;10.18;2.22;;;15.10;99.90;;;;;;6181968;23;20379;-71
2022/10/07 09:54:28;;;;;;;13.63;2.60;;;15.20;99.90;;;;;;6182257;23;20005;-70
2022/10/07 09:56:56;;;;;;;8.18;2.60;;;15.20;99.90;;;;;;6181755;23;20005;-71
2022/10/07 09:59:30;;;;;;;9.93;2.58;;;15.40;99.90;;;;;;6182512;23;20058;-71
2022/10/07 10:02:13;;;;;;;9.18;2.15;;;16.50;99.90;;;;;;6181441;23;20040;-71
2022/10/07 10:04:53;;;;;;;9.80;2.20;;;15.60;99.90;;;;;;6180565;23;19997;-71
2022/10/07 10:07:18;;;;;;;13.18;2.05;;;15.90;99.90;;;;;;6182013;23;20436;-71
2022/10/07 10:09:50;;;;;;;14.63;2.20;;;15.70;99.90;;;;;;6181846;23;20012;-71
2022/10/07 10:12:18;;;;;;;11.98;1.85;;;15.80;99.90;;;;;;6181748;23;20039;-71
2022/10/07 10:14:48;;;;;;;14.40;1.90;;;16.00;99.90;;;;;;6181081;23;20076;-71
2022/10/07 10:17:31;;;;;;;11.85;2.03;;;15.90;99.90;;;;;;6181825;23;20012;-71
2022/10/07 10:20:27;;;;;;;11.10;2.27;;;16.10;99.90;;;;;;6181615;23;20012;-72
2022/10/07 10:22:53;;;;;;;9.27;2.03;;;16.20;99.90;;;;;;6181396;23;20216;-71
2022/10/07 10:28:27;;;;;;;11.02;1.75;;;16.40;99.90;;;;;;6181702;23;20079;-71
2022/10/07 10:31:03;;;;;;;10.45;1.50;;;16.50;99.90;;;;;;6181014;23;20313;-72
2022/10/07 10:33:46;;;;;;;10.32;2.33;;;16.50;99.90;;;;;;6181195;23;20009;-72
2022/10/07 10:36:22;;;;;;;10.90;1.90;;;16.60;99.90;;;;;;6180970;23;20005;-71
2022/10/07 10:39:37;;;;;;;10.65;2.70;;;16.70;99.90;;;;;;6181581;23;20025;-71
2022/10/07 10:42:10;;;;;;;11.93;2.50;;;16.80;99.90;;;;;;6181973;23;20474;-72
2022/10/07 10:44:42;;;;;;;7.45;1.63;;;16.80;99.90;;;;;;6179588;23;20501;-71
2022/10/07 10:47:40;;;;;;;8.20;1.63;;;16.90;99.90;;;;;;6181969;23;20008;-72
2022/10/07 10:50:20;;;;;;;12.40;1.88;;;17.10;99.90;;;;;;6182081;23;20001;-72
2022/10/07 10:53:00;;;;;;;5.38;1.23;;;17.10;99.90;;;;;;6181635;23;20001;-72
2022/10/07 10:55:33;;;;;;;10.65;1.38;;;17.20;99.90;;;;;;6181985;23;20012;-72
2022/10/07 10:58:10;;;;;;;9.40;1.83;;;17.10;99.90;;;;;;6181543;23;20029;-72
2022/10/07 11:01:10;;;;;;;8.90;1.92;;;16.90;99.90;;;;;;6181889;23;20001;-72
2022/10/07 11:03:47;;;;;;;7.35;1.17;;;16.80;99.90;;;;;;6175350;23;20005;-71
2022/10/07 11:06:16;;;;;;;12.40;1.52;;;16.60;99.90;;;;;;6182065;23;20009;-72
2022/10/07 11:08:43;;;;;;;6.50;1.38;;;16.50;99.90;;;;;;6181607;23;20001;-71
2022/10/07 11:11:15;;;;;;;13.35;1.65;;;16.30;99.90;;;;;;6181776;23;20369;-72
2022/10/07 11:13:56;;;;;;;10.95;1.45;;;16.40;99.90;;;;;;6180981;23;20009;-72
2022/10/07 11:16:37;;;;;;;12.88;3.08;;;16.30;99.90;;;;;;6181138;23;20063;-71
2022/10/07 11:19:20;;;;;;;8.68;1.17;;;16.20;99.90;;;;;;6181926;23;20002;-71
2022/10/07 11:21:49;;;;;;;13.57;1.33;;;16.20;99.90;;;;;;6181419;23;20028;-73
2022/10/07 11:24:24;;;;;;;14.57;2.28;;;16.20;99.90;;;;;;6181387;23;20009;-72
2022/10/07 11:26:56;;;;;;;7.53;2.38;;;16.20;99.90;;;;;;6181264;23;20326;-71
2022/10/07 11:29:39;;;;;;;15.47;2.37;;;16.20;99.90;;;;;;6181848;23;20005;-71
2022/10/07 11:32:14;;;;;;;6.90;1.45;;;16.10;99.90;;;;;;6182107;23;20072;-72
2022/10/07 11:34:47;;;;;;;10.25;1.98;;;16.10;99.90;;;;;;6181340;23;20386;-72
2022/10/07 11:37:30;;;;;;;6.72;1.55;;;16.40;99.90;;;;;;6181495;23;20088;-71
2022/10/07 11:39:56;;;;;;;6.95;1.30;;;16.20;99.90;;;;;;6181717;23;19997;-72
2022/10/07 11:42:39;;;;;;;7.50;1.80;;;16.20;99.90;;;;;;6181010;23;20085;-71
2022/10/07 11:45:27;;;;;;;6.87;1.47;;;16.20;99.90;;;;;;6182041;23;20001;-72
2022/10/07 11:47:58;;;;;;;9.25;1.77;;;16.20;99.90;;;;;;6181918;23;20548;-71
2022/10/07 11:50:35;;;;;;;9.80;1.70;;;16.30;99.90;;;;;;6183073;23;20008;-71
2022/10/07 11:53:13;;;;;;;8.98;1.77;;;16.20;99.90;;;;;;6182410;23;20364;-71
2022/10/07 11:55:50;;;;;;;6.32;1.27;;;16.30;99.90;;;;;;6182732;23;20137;-72
2022/10/07 11:58:59;;;;;;;5.95;2.00;;;16.40;99.90;;;;;;6183106;23;20001;-72
2022/10/07 12:01:24;;;;;;;14.60;1.95;;;16.30;99.90;;;;;;6062446;23;20337;-71
2022/10/07 12:03:59;;;;;;;8.82;1.63;;;16.40;99.90;;;;;;6062387;23;20426;-71
2022/10/07 12:06:24;;;;;;;4.05;1.00;;;16.40;99.90;;;;;;6038828;23;20018;-72
2022/10/07 12:08:52;;;;;;;8.82;1.63;;;16.60;99.90;;;;;;6038193;23;20085;-72
2022/10/07 12:11:17;;;;;;;11.90;1.63;;;16.10;99.90;;;;;;6061605;23;20007;-71
2022/10/07 12:13:46;;;;;;;12.20;1.88;;;16.60;99.90;;;;;;6061600;23;20033;-71
2022/10/07 12:16:29;;;;;;;10.20;2.08;;;16.60;99.90;;;;;;6062539;23;20011;-71
2022/10/07 12:19:05;;;;;;;9.65;1.38;;;16.60;99.90;;;;;;6062044;23;20098;-71
2022/10/07 12:21:58;;;;;;;7.20;1.75;;;16.70;99.90;;;;;;6063112;23;20011;-72
2022/10/07 12:24:24;;;;;;;8.10;1.20;;;16.70;99.90;;;;;;6062537;23;20094;-72
2022/10/07 12:26:50;;;;;;;6.90;1.35;;;16.70;99.90;;;;;;6062251;23;20334;-71
2022/10/07 12:29:44;;;;;;;10.00;1.45;;;16.80;99.90;;;;;;6062769;23;20035;-72
2022/10/07 12:32:59;;;;;;;11.15;1.88;;;16.70;99.90;;;;;;6063050;23;20351;-71
2022/10/07 12:35:34;;;;;;;9.85;1.02;;;16.80;99.90;;;;;;6114911;23;20024;-72
2022/10/07 12:38:22;;;;;;;8.00;1.55;;;16.80;99.90;;;;;;6182835;23;20084;-72
2022/10/07 12:40:56;;;;;;;10.10;1.85;;;16.90;99.90;;;;;;6182290;23;19998;-71
2022/10/07 12:43:33;;;;;;;7.72;1.92;;;16.90;99.90;;;;;;6182986;23;20488;-71
2022/10/07 12:46:00;;;;;;;11.15;1.20;;;16.90;99.90;;;;;;6182908;23;20068;-71
2022/10/07 12:48:32;;;;;;;6.72;1.08;;;17.70;99.90;;;;;;6182822;23;20661;-71
2022/10/07 12:51:00;;;;;;;6.93;1.50;;;16.80;99.90;;;;;;6182860;23;20011;-71
2022/10/07 12:53:29;;;;;;;9.00;1.42;;;16.90;99.90;;;;;;6182748;23;20090;-71
2022/10/07 12:55:55;;;;;;;11.20;1.30;;;16.90;99.90;;;;;;6181603;23;20423;-71
2022/10/07 13:02:07;;;;;;;;;;;17.00;99.30;;;;;;6182721;23;20341;-71
2022/10/07 13:05:03;;;;;;;7.55;1.33;;;15.60;99.10;;;;;;6180731;23;19901;-70
2022/10/07 13:07:50;;;;;;;7.38;1.67;;;17.20;99.20;;;;;;6182468;23;20062;-72
2022/10/07 13:10:46;;;;;;;5.20;1.48;;;17.00;98.90;;;;;;6182032;23;20411;-70
2022/10/07 13:13:27;;;;;;;5.75;1.30;;;17.00;98.80;;;;;;6182687;23;20001;-71
2022/10/07 13:16:00;;;;;;;4.80;0.98;;;17.10;99.40;;;;;;6182308;23;20006;-71
2022/10/07 13:19:05;;;;;;;5.93;1.37;;;17.00;99.40;;;;;;6182836;23;20005;-71